createdAt,value
2022-09-26T00:00:57.263Z,87.59
2022-09-26T00:01:57.244Z,87.90
2022-09-26T00:02:57.215Z,87.49
2022-09-26T00:03:57.112Z,88.00
2022-09-26T00:04:57.112Z,88.40
2022-09-26T00:05:57.105Z,88.31
2022-09-26T00:06:57.082Z,88.10
2022-09-26T00:07:57.063Z,87.49
2022-09-26T00:08:57.055Z,86.77
2022-09-26T00:09:57.036Z,85.55
2022-09-26T00:10:57.036Z,85.05
2022-09-26T00:11:57.017Z,85.05
2022-09-26T00:12:57.002Z,84.84
2022-09-26T00:13:56.987Z,84.78
2022-09-26T00:14:56.971Z,84.84
2022-09-26T00:15:56.971Z,84.58
2022-09-26T00:16:57.023Z,85.08
2022-09-26T00:17:56.934Z,84.06
2022-09-26T00:18:56.922Z,83.76
2022-09-26T00:19:56.905Z,83.56
2022-09-26T00:20:56.914Z,83.72
2022-09-26T00:21:56.893Z,83.56
2022-09-26T00:22:56.874Z,84.06
2022-09-26T00:23:56.851Z,84.88
2022-09-26T00:24:56.847Z,85.39
2022-09-26T00:25:56.846Z,85.28
2022-09-26T00:26:56.825Z,85.28
2022-09-26T00:27:56.808Z,86.82
2022-09-26T00:28:56.792Z,87.23
2022-09-26T00:29:56.785Z,87.12
2022-09-26T00:30:56.898Z,86.10
2022-09-26T00:31:56.751Z,86.92
2022-09-26T00:32:56.742Z,87.84
2022-09-26T00:33:56.724Z,87.84
2022-09-26T00:34:56.721Z,87.12
2022-09-26T00:35:56.710Z,87.23
2022-09-26T00:36:56.692Z,87.43
2022-09-26T00:37:56.670Z,87.94
2022-09-26T00:38:56.664Z,88.24
2022-09-26T00:39:56.654Z,86.92
2022-09-26T00:40:56.691Z,86.30
2022-09-26T00:41:56.622Z,85.80
2022-09-26T00:42:56.616Z,85.39
2022-09-26T00:43:56.592Z,84.78
2022-09-26T00:44:56.583Z,84.58
2022-09-26T00:45:56.631Z,85.69
2022-09-26T00:46:56.558Z,86.51
2022-09-26T00:47:56.542Z,87.12
2022-09-26T00:48:56.529Z,86.41
2022-09-26T00:49:56.528Z,85.60
2022-09-26T00:50:56.504Z,84.98
2022-09-26T00:51:56.486Z,83.86
2022-09-26T00:52:56.480Z,83.56
2022-09-26T00:53:56.485Z,83.25
2022-09-26T00:54:56.462Z,83.35
2022-09-26T00:55:56.435Z,83.96
2022-09-26T00:56:56.422Z,83.96
2022-09-26T00:57:56.414Z,86.51
2022-09-26T00:58:56.401Z,87.32
2022-09-26T00:59:56.401Z,88.55
2022-09-26T01:00:56.477Z,89.06
2022-09-26T01:01:56.455Z,89.16
2022-09-26T01:02:56.346Z,88.96
2022-09-26T01:03:56.335Z,88.96
2022-09-26T01:04:56.334Z,89.36
2022-09-26T01:05:56.309Z,89.26
2022-09-26T01:06:56.291Z,89.47
2022-09-26T01:07:56.280Z,89.87
2022-09-26T01:08:56.272Z,90.28
2022-09-26T01:09:56.261Z,89.57
2022-09-26T01:10:56.241Z,89.67
2022-09-26T01:11:56.220Z,89.71
2022-09-26T01:12:56.222Z,89.67
2022-09-26T01:13:56.203Z,89.67
2022-09-26T01:14:56.201Z,89.92
2022-09-26T01:15:56.181Z,89.81
2022-09-26T01:16:56.204Z,90.32
2022-09-26T01:17:56.143Z,89.92
2022-09-26T01:18:56.143Z,89.92
2022-09-26T01:19:56.131Z,90.32
2022-09-26T01:20:56.110Z,90.22
2022-09-26T01:21:56.101Z,89.51
2022-09-26T01:22:56.091Z,88.90
2022-09-26T01:23:56.072Z,88.49
2022-09-26T01:24:56.073Z,88.18
2022-09-26T01:25:56.051Z,88.08
2022-09-26T01:26:56.038Z,87.57
2022-09-26T01:27:56.021Z,86.76
2022-09-26T01:28:56.011Z,86.45
2022-09-26T01:29:56.010Z,87.67
2022-09-26T01:30:56.003Z,88.49
2022-09-26T01:31:55.967Z,88.79
2022-09-26T01:32:55.963Z,89.10
2022-09-26T01:33:55.941Z,88.08
2022-09-26T01:34:55.940Z,89.40
2022-09-26T01:35:55.923Z,89.61
2022-09-26T01:36:55.916Z,90.22
2022-09-26T01:37:55.889Z,89.81
2022-09-26T01:38:55.892Z,90.01
2022-09-26T01:39:55.859Z,90.73
2022-09-26T01:40:55.869Z,91.35
2022-09-26T01:41:55.839Z,91.75
2022-09-26T01:42:55.831Z,91.85
2022-09-26T01:43:55.819Z,92.26
2022-09-26T01:44:55.815Z,92.16
2022-09-26T01:45:55.814Z,91.96
2022-09-26T01:46:55.768Z,91.75
2022-09-26T01:47:55.757Z,91.35
2022-09-26T01:48:55.764Z,90.42
2022-09-26T01:49:55.732Z,89.71
2022-09-26T01:50:55.725Z,89.00
2022-09-26T01:51:55.699Z,89.20
2022-09-26T01:52:55.692Z,89.51
2022-09-26T01:53:55.709Z,90.01
2022-09-26T01:54:55.670Z,90.01
2022-09-26T01:55:55.652Z,90.01
2022-09-26T01:56:55.652Z,89.71
2022-09-26T01:57:55.627Z,88.90
2022-09-26T01:58:55.629Z,88.08
2022-09-26T01:59:55.597Z,87.37
2022-09-26T02:00:55.626Z,88.08
2022-09-26T02:01:55.636Z,89.20
2022-09-26T02:02:55.557Z,89.00
2022-09-26T02:03:55.560Z,88.59
2022-09-26T02:04:55.541Z,87.98
2022-09-26T02:05:55.519Z,88.79
2022-09-26T02:06:55.505Z,89.40
2022-09-26T02:07:55.510Z,89.51
2022-09-26T02:08:55.499Z,89.40
2022-09-26T02:09:55.479Z,89.51
2022-09-26T02:10:55.457Z,89.81
2022-09-26T02:11:55.444Z,89.81
2022-09-26T02:12:55.458Z,89.81
2022-09-26T02:13:55.428Z,90.12
2022-09-26T02:14:55.408Z,90.53
2022-09-26T02:15:55.388Z,91.03
2022-09-26T02:16:55.408Z,91.14
2022-09-26T02:17:55.366Z,91.14
2022-09-26T02:18:55.365Z,90.83
2022-09-26T02:19:55.336Z,90.53
2022-09-26T02:20:55.329Z,89.81
2022-09-26T02:21:55.318Z,89.51
2022-09-26T02:22:55.298Z,89.61
2022-09-26T02:23:55.296Z,88.79
2022-09-26T02:24:55.266Z,89.30
2022-09-26T02:25:55.269Z,90.32
2022-09-26T02:26:55.245Z,90.63
2022-09-26T02:27:55.243Z,90.22
2022-09-26T02:28:55.226Z,90.01
2022-09-26T02:29:55.209Z,90.12
2022-09-26T02:30:55.194Z,90.12
2022-09-26T02:31:55.224Z,90.01
2022-09-26T02:32:55.179Z,89.71
2022-09-26T02:33:55.157Z,89.81
2022-09-26T02:34:55.137Z,89.71
2022-09-26T02:35:55.133Z,90.12
2022-09-26T02:36:55.114Z,89.92
2022-09-26T02:37:55.122Z,89.71
2022-09-26T02:38:55.088Z,89.40
2022-09-26T02:39:55.079Z,90.32
2022-09-26T02:40:55.100Z,90.42
2022-09-26T02:41:55.057Z,90.01
2022-09-26T02:42:55.047Z,90.42
2022-09-26T02:43:55.027Z,90.63
2022-09-26T02:44:55.012Z,90.83
2022-09-26T02:45:55.057Z,91.44
2022-09-26T02:46:54.988Z,91.75
2022-09-26T02:47:54.992Z,92.26
2022-09-26T02:48:54.957Z,91.85
2022-09-26T02:49:54.946Z,91.75
2022-09-26T02:50:54.930Z,91.14
2022-09-26T02:51:54.927Z,90.63
2022-09-26T02:52:54.916Z,89.71
2022-09-26T02:53:54.897Z,88.79
2022-09-26T02:54:54.876Z,88.28
2022-09-26T02:55:54.869Z,88.39
2022-09-26T02:56:54.856Z,87.98
2022-09-26T02:57:54.856Z,88.39
2022-09-26T02:58:54.824Z,88.59
2022-09-26T02:59:54.828Z,89.20
2022-09-26T03:00:54.842Z,89.20
2022-09-26T03:01:54.794Z,88.49
2022-09-26T03:02:54.787Z,88.08
2022-09-26T03:03:54.775Z,87.77
2022-09-26T03:04:54.793Z,87.06
2022-09-26T03:05:54.734Z,87.88
2022-09-26T03:06:54.719Z,88.49
2022-09-26T03:07:54.720Z,88.39
2022-09-26T03:08:54.695Z,89.00
2022-09-26T03:09:54.693Z,89.61
2022-09-26T03:10:54.664Z,90.63
2022-09-26T03:11:54.667Z,91.65
2022-09-26T03:12:54.655Z,91.24
2022-09-26T03:13:54.636Z,91.03
2022-09-26T03:14:58.565Z,91.75
2022-09-26T03:15:54.611Z,91.85
2022-09-26T03:16:54.650Z,91.85
2022-09-26T03:17:54.601Z,91.85
2022-09-26T03:18:54.573Z,91.39
2022-09-26T03:19:54.556Z,90.47
2022-09-26T03:20:54.536Z,89.86
2022-09-26T03:21:54.534Z,90.36
2022-09-26T03:22:54.514Z,90.06
2022-09-26T03:23:54.509Z,90.06
2022-09-26T03:24:54.492Z,90.06
2022-09-26T03:25:54.465Z,90.06
2022-09-26T03:26:54.465Z,89.86
2022-09-26T03:27:54.453Z,90.06
2022-09-26T03:28:54.423Z,91.08
2022-09-26T03:29:54.426Z,91.49
2022-09-26T03:30:54.405Z,91.49
2022-09-26T03:31:54.447Z,91.79
2022-09-26T03:32:54.394Z,92.10
2022-09-26T03:33:54.384Z,91.79
2022-09-26T03:34:54.361Z,91.89
2022-09-26T03:35:54.343Z,92.00
2022-09-26T03:36:54.325Z,91.79
2022-09-26T03:37:54.326Z,91.49
2022-09-26T03:38:54.298Z,90.77
2022-09-26T03:39:54.296Z,89.75
2022-09-26T03:40:54.366Z,90.26
2022-09-26T03:41:54.285Z,89.86
2022-09-26T03:42:54.254Z,90.67
2022-09-26T03:43:54.242Z,90.67
2022-09-26T03:44:54.227Z,91.08
2022-09-26T03:45:54.227Z,90.98
2022-09-26T03:46:54.215Z,90.98
2022-09-26T03:47:54.194Z,90.57
2022-09-26T03:48:54.178Z,90.98
2022-09-26T03:49:54.162Z,90.26
2022-09-26T03:50:54.143Z,90.98
2022-09-26T03:51:54.151Z,91.18
2022-09-26T03:52:54.119Z,91.49
2022-09-26T03:53:54.114Z,91.49
2022-09-26T03:54:54.094Z,91.39
2022-09-26T03:55:54.081Z,90.57
2022-09-26T03:56:54.073Z,90.67
2022-09-26T03:57:54.056Z,90.77
2022-09-26T03:58:54.042Z,91.79
2022-09-26T03:59:54.032Z,92.30
2022-09-26T04:00:54.042Z,92.30
2022-09-26T04:01:54.087Z,91.69
2022-09-26T04:02:53.990Z,91.18
2022-09-26T04:03:53.973Z,89.96
2022-09-26T04:04:53.967Z,89.34
2022-09-26T04:05:53.951Z,90.16
2022-09-26T04:06:53.957Z,90.57
2022-09-26T04:07:53.929Z,90.67
2022-09-26T04:08:53.917Z,91.59
2022-09-26T04:09:53.902Z,91.89
2022-09-26T04:10:53.884Z,91.59
2022-09-26T04:11:53.908Z,90.67
2022-09-26T04:12:53.853Z,89.75
2022-09-26T04:13:54.297Z,88.73
2022-09-26T04:14:53.840Z,89.25
2022-09-26T04:15:53.870Z,89.25
2022-09-26T04:16:53.818Z,89.04
2022-09-26T04:17:53.791Z,88.53
2022-09-26T04:18:53.780Z,88.12
2022-09-26T04:19:53.768Z,87.71
2022-09-26T04:20:53.751Z,87.51
2022-09-26T04:21:53.761Z,88.53
2022-09-26T04:22:53.722Z,88.53
2022-09-26T04:23:53.716Z,88.12
2022-09-26T04:24:53.773Z,87.41
2022-09-26T04:25:53.695Z,87.71
2022-09-26T04:26:53.724Z,88.02
2022-09-26T04:27:53.660Z,88.43
2022-09-26T04:28:53.651Z,89.04
2022-09-26T04:29:53.640Z,88.32
2022-09-26T04:30:53.625Z,87.92
2022-09-26T04:31:53.693Z,88.12
2022-09-26T04:32:53.594Z,89.25
2022-09-26T04:33:53.581Z,90.16
2022-09-26T04:34:53.571Z,89.75
2022-09-26T04:35:54.521Z,89.55
2022-09-26T04:36:53.551Z,89.39
2022-09-26T04:37:53.529Z,89.75
2022-09-26T04:38:53.510Z,90.61
2022-09-26T04:39:53.521Z,90.61
2022-09-26T04:40:53.517Z,90.71
2022-09-26T04:41:53.492Z,90.81
2022-09-26T04:42:53.460Z,91.12
2022-09-26T04:43:53.452Z,91.12
2022-09-26T04:44:53.451Z,91.43
2022-09-26T04:45:53.495Z,92.35
2022-09-26T04:46:53.429Z,92.86
2022-09-26T04:47:53.401Z,93.06
2022-09-26T04:48:53.387Z,93.16
2022-09-26T04:49:53.379Z,92.76
2022-09-26T04:50:53.371Z,92.35
2022-09-26T04:51:53.362Z,91.94
2022-09-26T04:52:53.392Z,91.74
2022-09-26T04:53:53.326Z,92.76
2022-09-26T04:54:53.308Z,93.47
2022-09-26T04:55:53.305Z,93.37
2022-09-26T04:56:53.298Z,93.51
2022-09-26T04:57:53.279Z,93.71
2022-09-26T04:58:53.251Z,93.41
2022-09-26T04:59:53.238Z,92.59
2022-09-26T05:00:53.288Z,92.59
2022-09-26T05:01:53.289Z,92.59
2022-09-26T05:02:53.197Z,91.98
2022-09-26T05:03:53.190Z,91.78
2022-09-26T05:04:53.178Z,92.08
2022-09-26T05:05:53.169Z,91.67
2022-09-26T05:06:53.163Z,92.02
2022-09-26T05:07:53.139Z,91.82
2022-09-26T05:08:53.119Z,91.52
2022-09-26T05:09:53.108Z,91.92
2022-09-26T05:10:53.100Z,91.82
2022-09-26T05:11:53.205Z,91.92
2022-09-26T05:12:53.082Z,91.82
2022-09-26T05:13:53.908Z,91.20
2022-09-26T05:14:53.041Z,91.31
2022-09-26T05:15:53.086Z,91.96
2022-09-26T05:16:53.087Z,91.86
2022-09-26T05:17:53.011Z,91.76
2022-09-26T05:18:52.993Z,91.25
2022-09-26T05:19:52.979Z,90.64
2022-09-26T05:20:52.968Z,90.74
2022-09-26T05:21:52.970Z,91.46
2022-09-26T05:22:52.941Z,91.25
2022-09-26T05:23:52.930Z,90.94
2022-09-26T05:24:52.910Z,90.64
2022-09-26T05:25:52.898Z,90.64
2022-09-26T05:26:52.896Z,89.82
2022-09-26T05:27:52.878Z,90.64
2022-09-26T05:28:52.859Z,91.15
2022-09-26T05:29:52.848Z,91.66
2022-09-26T05:30:52.826Z,91.76
2022-09-26T05:31:52.878Z,91.76
2022-09-26T05:32:52.816Z,91.05
2022-09-26T05:33:52.796Z,91.35
2022-09-26T05:34:52.777Z,91.35
2022-09-26T05:35:52.771Z,91.86
2022-09-26T05:36:52.756Z,91.15
2022-09-26T05:37:52.747Z,90.84
2022-09-26T05:38:52.731Z,90.84
2022-09-26T05:39:52.715Z,91.25
2022-09-26T05:40:52.776Z,90.64
2022-09-26T05:41:52.705Z,90.33
2022-09-26T05:42:52.675Z,90.49
2022-09-26T05:43:52.671Z,90.70
2022-09-26T05:44:52.647Z,91.72
2022-09-26T05:45:52.638Z,91.92
2022-09-26T05:46:52.739Z,91.92
2022-09-26T05:47:52.612Z,91.92
2022-09-26T05:48:52.599Z,91.52
2022-09-26T05:49:52.586Z,91.82
2022-09-26T05:50:52.579Z,91.20
2022-09-26T05:51:52.572Z,91.41
2022-09-26T05:52:52.545Z,91.11
2022-09-26T05:53:52.543Z,90.59
2022-09-26T05:54:52.519Z,90.80
2022-09-26T05:55:52.507Z,90.90
2022-09-26T05:56:52.497Z,90.90
2022-09-26T05:57:52.478Z,91.00
2022-09-26T05:58:52.464Z,90.75
2022-09-26T05:59:52.459Z,90.14
2022-09-26T06:00:52.529Z,89.43
2022-09-26T06:01:52.485Z,89.94
2022-09-26T06:02:52.416Z,90.04
2022-09-26T06:03:52.403Z,89.84
2022-09-26T06:04:52.383Z,89.12
2022-09-26T06:05:52.374Z,88.61
2022-09-26T06:06:52.381Z,88.10
2022-09-26T06:07:52.363Z,87.76
2022-09-26T06:08:52.345Z,87.65
2022-09-26T06:09:52.325Z,87.35
2022-09-26T06:10:52.324Z,87.24
2022-09-26T06:11:52.306Z,86.83
2022-09-26T06:12:52.284Z,85.92
2022-09-26T06:13:52.276Z,85.88
2022-09-26T06:14:52.258Z,86.39
2022-09-26T06:15:52.297Z,86.59
2022-09-26T06:16:52.268Z,87.41
2022-09-26T06:17:52.213Z,87.61
2022-09-26T06:18:52.209Z,87.30
2022-09-26T06:19:52.192Z,88.22
2022-09-26T06:20:52.191Z,88.53
2022-09-26T06:21:52.208Z,87.92
2022-09-26T06:22:52.150Z,87.67
2022-09-26T06:23:52.131Z,87.88
2022-09-26T06:24:52.141Z,87.47
2022-09-26T06:25:52.125Z,86.82
2022-09-26T06:26:59.094Z,86.37
2022-09-26T06:27:55.159Z,85.98
2022-09-26T06:28:53.065Z,84.74
2022-09-26T06:29:52.057Z,82.80
2022-09-26T06:30:52.073Z,80.35
2022-09-26T06:31:52.078Z,77.98
2022-09-26T06:32:52.024Z,77.07
2022-09-26T06:33:52.002Z,75.92
2022-09-26T06:34:51.995Z,75.24
2022-09-26T06:35:52.004Z,74.77
2022-09-26T06:36:51.966Z,72.85
2022-09-26T06:37:51.955Z,72.61
2022-09-26T06:38:51.961Z,71.67
2022-09-26T06:39:55.770Z,71.94
2022-09-26T06:40:52.989Z,71.94
2022-09-26T06:41:51.905Z,71.10
2022-09-26T06:42:51.894Z,70.79
2022-09-26T06:43:51.874Z,71.60
2022-09-26T06:44:51.878Z,70.76
2022-09-26T06:45:51.863Z,70.76
2022-09-26T06:46:51.922Z,69.75
2022-09-26T06:47:51.815Z,70.12
2022-09-26T06:48:51.805Z,69.29
2022-09-26T06:49:51.799Z,69.18
2022-09-26T06:50:51.837Z,67.44
2022-09-26T06:51:51.779Z,67.38
2022-09-26T06:52:51.758Z,67.74
2022-09-26T06:53:51.742Z,64.97
2022-09-26T06:54:51.736Z,64.24
2022-09-26T06:55:51.728Z,63.87
2022-09-26T06:56:51.706Z,62.94
2022-09-26T06:57:51.694Z,61.64
2022-09-26T06:58:51.682Z,60.64
2022-09-26T06:59:51.675Z,59.70
2022-09-26T07:00:51.709Z,60.28
2022-09-26T07:01:51.694Z,58.78
2022-09-26T07:02:51.625Z,57.98
2022-09-26T07:03:54.292Z,57.95
2022-09-26T07:04:51.614Z,59.12
2022-09-26T07:06:01.583Z,57.92
2022-09-26T07:06:51.572Z,57.92
2022-09-26T07:07:51.552Z,58.72
2022-09-26T07:09:02.006Z,57.22
2022-09-26T07:09:52.555Z,59.15
2022-09-26T07:10:51.522Z,58.45
2022-09-26T07:12:13.515Z,57.85
2022-09-26T07:12:52.521Z,56.55
2022-09-26T07:13:51.475Z,56.55
2022-09-26T07:14:53.781Z,58.65
2022-09-26T07:15:51.550Z,58.72
2022-09-26T07:16:51.445Z,57.92
2022-09-26T07:17:51.423Z,56.79
2022-09-26T07:18:51.412Z,56.84
2022-09-26T07:19:51.425Z,54.82
2022-09-26T07:20:56.512Z,53.72
2022-09-26T07:21:52.377Z,53.69
2022-09-26T07:22:51.364Z,53.34
2022-09-26T07:23:51.344Z,51.92
2022-09-26T07:24:51.384Z,52.39
2022-09-26T07:25:51.321Z,51.17
2022-09-26T07:26:51.314Z,50.23
2022-09-26T07:27:51.293Z,48.91
2022-09-26T07:28:54.785Z,48.66
2022-09-26T07:29:51.266Z,48.94
2022-09-26T07:30:51.258Z,47.92
2022-09-26T07:31:51.297Z,47.90
2022-09-26T07:32:51.235Z,47.98
2022-09-26T07:33:51.259Z,45.48
2022-09-26T07:34:51.205Z,44.46
2022-09-26T07:35:51.207Z,44.67
2022-09-26T07:36:51.185Z,44.56
2022-09-26T07:37:51.165Z,44.17
2022-09-26T07:38:51.176Z,45.83
2022-09-26T07:39:54.090Z,44.35
2022-09-26T07:40:51.222Z,43.93
2022-09-26T07:41:51.118Z,42.74
2022-09-26T07:43:15.418Z,41.75
2022-09-26T07:45:52.080Z,42.54
2022-09-26T07:46:51.108Z,42.05
2022-09-26T07:47:51.063Z,42.14
2022-09-26T07:48:52.116Z,42.03
2022-09-26T07:49:51.064Z,42.30
2022-09-26T07:50:51.006Z,41.81
2022-09-26T07:51:50.998Z,40.61
2022-09-26T07:52:51.002Z,41.08
2022-09-26T07:53:50.988Z,40.56
2022-09-26T07:54:50.947Z,39.18
2022-09-26T07:55:50.940Z,40.15
2022-09-26T07:56:50.932Z,39.86
2022-09-26T07:57:50.913Z,40.53
2022-09-26T07:58:50.930Z,39.12
2022-09-26T07:59:50.878Z,38.93
2022-09-26T08:00:50.890Z,38.83
2022-09-26T08:01:50.935Z,38.34
2022-09-26T08:02:51.038Z,38.64
2022-09-26T08:03:50.839Z,38.54
2022-09-26T08:04:50.832Z,38.42
2022-09-26T08:05:50.880Z,39.11
2022-09-26T08:06:50.803Z,37.41
2022-09-26T08:07:50.796Z,37.71
2022-09-26T08:08:50.783Z,38.60
2022-09-26T08:09:50.779Z,37.22
2022-09-26T08:10:50.743Z,36.92
2022-09-26T08:11:50.731Z,37.89
2022-09-26T08:12:50.775Z,37.30
2022-09-26T08:13:50.714Z,37.40
2022-09-26T08:14:50.694Z,37.22
2022-09-26T08:15:50.750Z,37.89
2022-09-26T08:16:50.671Z,35.72
2022-09-26T08:17:50.656Z,36.23
2022-09-26T08:18:50.710Z,37.91
2022-09-26T08:19:50.654Z,37.41
2022-09-26T08:20:50.646Z,37.02
2022-09-26T08:21:50.611Z,37.32
2022-09-26T08:22:50.642Z,37.02
2022-09-26T08:23:50.604Z,36.23
2022-09-26T08:24:50.565Z,36.45
2022-09-26T08:25:50.558Z,36.55
2022-09-26T08:26:50.544Z,36.94
2022-09-26T08:27:50.534Z,37.63
2022-09-26T08:28:50.556Z,36.25
2022-09-26T08:29:50.509Z,37.22
2022-09-26T08:30:50.556Z,36.43
2022-09-26T08:31:50.508Z,36.53
2022-09-26T08:32:50.467Z,37.51
2022-09-26T08:33:50.477Z,36.92
2022-09-26T08:34:50.449Z,37.22
2022-09-26T08:35:50.445Z,37.02
2022-09-26T08:36:50.417Z,37.12
2022-09-26T08:37:50.407Z,36.04
2022-09-26T08:38:50.406Z,36.43
2022-09-26T08:39:50.385Z,36.92
2022-09-26T08:40:50.446Z,35.54
2022-09-26T08:41:50.372Z,36.04
2022-09-26T08:42:50.339Z,37.10
2022-09-26T08:43:50.338Z,36.32
2022-09-26T08:44:50.308Z,35.25
2022-09-26T08:45:50.308Z,35.54
2022-09-26T08:46:50.337Z,34.56
2022-09-26T08:47:50.270Z,34.66
2022-09-26T08:48:50.346Z,34.97
2022-09-26T08:49:50.272Z,34.20
2022-09-26T08:50:50.261Z,35.88
2022-09-26T08:51:50.241Z,36.46
2022-09-26T08:52:50.254Z,35.77
2022-09-26T08:53:50.217Z,36.36
2022-09-26T08:54:50.192Z,36.96
2022-09-26T08:55:50.189Z,36.76
2022-09-26T08:56:50.228Z,35.28
2022-09-26T08:57:50.165Z,35.77
2022-09-26T08:58:50.191Z,36.27
2022-09-26T08:59:50.136Z,35.48
2022-09-26T09:00:50.124Z,36.76
2022-09-26T09:01:50.249Z,36.55
2022-09-26T09:02:50.208Z,36.84
2022-09-26T09:03:50.088Z,36.25
2022-09-26T09:04:53.808Z,35.66
2022-09-26T09:06:09.926Z,35.76
2022-09-26T09:06:50.056Z,36.45
2022-09-26T09:07:50.038Z,36.35
2022-09-26T09:08:50.007Z,36.46
2022-09-26T09:09:49.998Z,35.48
2022-09-26T09:10:49.989Z,35.77
2022-09-26T09:11:51.205Z,36.57
2022-09-26T09:12:49.967Z,35.99
2022-09-26T09:13:49.960Z,35.79
2022-09-26T09:15:07.687Z,36.78
2022-09-26T09:15:50.976Z,37.29
2022-09-26T09:16:49.922Z,37.09
2022-09-26T09:17:49.933Z,36.90
2022-09-26T09:18:49.935Z,37.68
2022-09-26T09:19:49.882Z,36.42
2022-09-26T09:20:49.867Z,36.91
2022-09-26T09:21:49.858Z,37.70
2022-09-26T09:22:49.859Z,38.10
2022-09-26T09:23:49.820Z,37.32
2022-09-26T09:24:49.804Z,36.85
2022-09-26T09:25:49.848Z,36.18
2022-09-26T09:27:54.457Z,36.52
2022-09-26T09:28:49.813Z,37.22
2022-09-26T09:29:49.883Z,37.53
2022-09-26T09:30:49.726Z,37.73
2022-09-26T09:31:49.721Z,37.04
2022-09-26T09:32:49.740Z,37.73
2022-09-26T09:33:49.713Z,39.22
2022-09-26T09:34:53.632Z,39.02
2022-09-26T09:35:49.676Z,40.11
2022-09-26T09:36:49.681Z,38.32
2022-09-26T09:37:49.652Z,38.92
2022-09-26T09:38:49.682Z,38.03
2022-09-26T09:39:49.619Z,38.53
2022-09-26T09:40:49.710Z,38.40
2022-09-26T09:41:49.601Z,39.00
2022-09-26T09:42:49.594Z,38.92
2022-09-26T09:43:49.586Z,38.42
2022-09-26T09:44:49.587Z,39.31
2022-09-26T09:45:49.575Z,40.11
2022-09-26T09:46:49.609Z,39.42
2022-09-26T09:47:49.533Z,38.64
2022-09-26T09:48:49.561Z,39.34
2022-09-26T09:49:49.551Z,38.44
2022-09-26T09:50:49.506Z,40.23
2022-09-26T09:51:49.485Z,40.62
2022-09-26T09:52:49.492Z,40.33
2022-09-26T09:53:49.446Z,41.12
2022-09-26T09:54:49.432Z,38.96
2022-09-26T09:55:49.415Z,40.15
2022-09-26T09:56:49.394Z,39.85
2022-09-26T09:57:49.407Z,41.24
2022-09-26T09:58:49.412Z,40.05
2022-09-26T09:59:49.356Z,39.25
2022-09-26T10:00:51.339Z,39.67
2022-09-26T10:01:49.359Z,39.57
2022-09-26T10:02:49.395Z,38.78
2022-09-26T10:03:49.319Z,41.67
2022-09-26T10:04:49.304Z,39.19
2022-09-26T10:05:49.290Z,40.28
2022-09-26T10:06:49.272Z,39.59
2022-09-26T10:07:49.289Z,40.38
2022-09-26T10:08:49.321Z,41.08
2022-09-26T10:09:49.246Z,42.17
2022-09-26T10:10:49.239Z,39.51
2022-09-26T10:11:52.556Z,40.60
2022-09-26T10:12:49.208Z,40.20
2022-09-26T10:13:49.254Z,42.01
2022-09-26T10:14:49.182Z,41.02
2022-09-26T10:15:49.304Z,40.22
2022-09-26T10:16:49.168Z,41.02
2022-09-26T10:18:12.785Z,40.62
2022-09-26T10:18:50.114Z,38.65
2022-09-26T10:19:49.108Z,41.53
2022-09-26T10:20:49.118Z,41.63
2022-09-26T10:21:49.080Z,39.37
2022-09-26T10:22:49.081Z,41.95
2022-09-26T10:23:49.064Z,41.66
2022-09-26T10:24:49.040Z,41.36
2022-09-26T10:25:49.029Z,43.07
2022-09-26T10:26:49.022Z,43.44
2022-09-26T10:27:49.020Z,42.25
2022-09-26T10:28:49.044Z,41.55
2022-09-26T10:29:48.974Z,43.05
2022-09-26T10:30:49.007Z,41.46
2022-09-26T10:31:49.040Z,42.47
2022-09-26T10:32:52.793Z,41.58
2022-09-26T10:33:49.921Z,42.07
2022-09-26T10:34:48.912Z,43.76
2022-09-26T10:35:48.894Z,40.48
2022-09-26T10:36:48.893Z,41.47
2022-09-26T10:37:48.891Z,42.17
2022-09-26T10:38:48.925Z,42.79
2022-09-26T10:39:48.853Z,43.30
2022-09-26T10:40:48.919Z,45.02
2022-09-26T10:41:48.842Z,42.63
2022-09-26T10:42:48.841Z,42.43
2022-09-26T10:43:48.808Z,46.42
2022-09-26T10:44:48.803Z,45.32
2022-09-26T10:45:48.764Z,45.92
2022-09-26T10:46:48.866Z,43.63
2022-09-26T10:47:48.753Z,44.02
2022-09-26T10:48:48.850Z,42.75
2022-09-26T10:49:48.716Z,42.87
2022-09-26T10:50:48.705Z,46.19
2022-09-26T10:51:48.684Z,45.78
2022-09-26T10:52:48.701Z,45.40
2022-09-26T10:53:48.665Z,47.10
2022-09-26T10:54:48.664Z,46.03
2022-09-26T10:55:48.634Z,45.93
2022-09-26T10:56:48.634Z,45.95
2022-09-26T10:57:48.613Z,45.85
2022-09-26T10:58:48.648Z,47.27
2022-09-26T10:59:48.596Z,47.47
2022-09-26T11:00:48.580Z,46.80
2022-09-26T11:01:48.667Z,45.59
2022-09-26T11:02:48.569Z,46.81
2022-09-26T11:03:48.588Z,46.72
2022-09-26T11:04:48.525Z,46.51
2022-09-26T11:05:48.504Z,44.64
2022-09-26T11:06:48.516Z,45.54
2022-09-26T11:07:48.484Z,46.64
2022-09-26T11:08:48.527Z,49.64
2022-09-26T11:09:48.455Z,48.42
2022-09-26T11:10:48.458Z,48.79
2022-09-26T11:11:48.443Z,47.89
2022-09-26T11:12:48.427Z,49.59
2022-09-26T11:13:48.405Z,49.37
2022-09-26T11:14:48.396Z,48.57
2022-09-26T11:15:48.442Z,44.57
2022-09-26T11:16:48.377Z,48.27
2022-09-26T11:17:48.344Z,44.78
2022-09-26T11:18:48.372Z,49.29
2022-09-26T11:19:53.800Z,49.69
2022-09-26T11:20:49.320Z,48.61
2022-09-26T11:21:48.311Z,50.32
2022-09-26T11:22:48.363Z,48.92
2022-09-26T11:23:48.287Z,48.32
2022-09-26T11:24:48.276Z,47.94
2022-09-26T11:25:48.253Z,48.84
2022-09-26T11:26:48.257Z,48.66
2022-09-26T11:27:48.230Z,49.26
2022-09-26T11:28:48.280Z,50.46
2022-09-26T11:29:48.201Z,50.29
2022-09-26T11:30:48.301Z,49.99
2022-09-26T11:31:48.247Z,48.99
2022-09-26T11:32:48.157Z,50.31
2022-09-26T11:33:48.167Z,49.11
2022-09-26T11:34:48.136Z,50.31
2022-09-26T11:35:48.130Z,50.94
2022-09-26T11:36:48.116Z,51.84
2022-09-26T11:37:48.151Z,50.74
2022-09-26T11:38:48.213Z,49.93
2022-09-26T11:39:48.060Z,52.34
2022-09-26T11:40:48.142Z,52.07
2022-09-26T11:41:48.060Z,51.24
2022-09-26T11:42:48.030Z,52.64
2022-09-26T11:43:48.020Z,51.04
2022-09-26T11:44:48.011Z,51.04
2022-09-26T11:45:47.988Z,52.14
2022-09-26T11:46:48.059Z,52.84
2022-09-26T11:47:47.975Z,50.54
2022-09-26T11:48:47.971Z,51.54
2022-09-26T11:49:47.948Z,49.63
2022-09-26T11:50:47.926Z,50.26
2022-09-26T11:51:47.929Z,51.56
2022-09-26T11:52:49.368Z,50.26
2022-09-26T11:53:47.880Z,51.17
2022-09-26T11:54:47.869Z,53.17
2022-09-26T11:55:47.878Z,52.26
2022-09-26T11:56:47.849Z,51.87
2022-09-26T11:57:47.856Z,52.24
2022-09-26T11:58:47.830Z,51.94
2022-09-26T11:59:47.813Z,53.25
2022-09-26T12:00:47.821Z,50.81
2022-09-26T12:01:47.780Z,51.99
2022-09-26T12:02:47.842Z,52.89
2022-09-26T12:03:47.817Z,51.37
2022-09-26T12:04:47.810Z,52.37
2022-09-26T12:05:47.740Z,51.07
2022-09-26T12:06:47.784Z,49.54
2022-09-26T12:07:47.719Z,47.64
2022-09-26T12:08:47.702Z,47.22
2022-09-26T12:09:47.682Z,50.02
2022-09-26T12:10:47.675Z,50.22
2022-09-26T12:11:47.649Z,50.09
2022-09-26T12:12:47.632Z,50.09
2022-09-26T12:13:47.620Z,50.29
2022-09-26T12:14:47.622Z,49.29
2022-09-26T12:15:47.650Z,49.29
2022-09-26T12:16:47.592Z,49.37
2022-09-26T12:17:47.571Z,47.67
2022-09-26T12:19:03.182Z,48.67
2022-09-26T12:19:47.543Z,48.79
2022-09-26T12:20:47.533Z,47.39
2022-09-26T12:21:47.521Z,47.60
2022-09-26T12:22:47.506Z,47.39
2022-09-26T12:23:47.504Z,46.89
2022-09-26T12:24:47.475Z,48.69
2022-09-26T12:25:47.500Z,47.99
2022-09-26T12:26:47.443Z,47.79
2022-09-26T12:27:47.444Z,47.49
2022-09-26T12:28:47.425Z,49.90
2022-09-26T12:29:47.521Z,45.51
2022-09-26T12:30:47.448Z,48.82
2022-09-26T12:31:47.466Z,48.92
2022-09-26T12:32:47.363Z,49.52
2022-09-26T12:33:47.355Z,48.32
2022-09-26T12:34:47.346Z,46.62
2022-09-26T12:35:47.345Z,48.61
2022-09-26T12:36:47.326Z,47.11
2022-09-26T12:37:47.326Z,50.02
2022-09-26T12:38:47.298Z,49.91
2022-09-26T12:39:47.292Z,48.02
2022-09-26T12:40:47.325Z,49.11
2022-09-26T12:41:47.266Z,49.09
2022-09-26T12:42:47.235Z,49.19
2022-09-26T12:43:47.242Z,46.80
2022-09-26T12:44:47.213Z,45.79
2022-09-26T12:45:50.988Z,46.30
2022-09-26T12:46:48.217Z,49.79
2022-09-26T12:47:47.177Z,50.99
2022-09-26T12:48:47.166Z,49.59
2022-09-26T12:49:47.147Z,47.89
2022-09-26T12:50:47.145Z,44.20
2022-09-26T12:51:47.151Z,46.92
2022-09-26T12:52:47.106Z,47.72
2022-09-26T12:53:47.096Z,48.82
2022-09-26T12:54:47.085Z,45.31
2022-09-26T12:55:47.094Z,47.94